sensor_id;sensor_type;location;lat;lon;timestamp;P1;durP1;ratioP1;P2;durP2;ratioP2
3297;SDS011;1661;53.572;10.174;2023-05-07T00:01:02;16.73;;;14.73;;
3297;SDS011;1661;53.572;10.174;2023-05-07T00:03:30;16.63;;;13.93;;
3297;SDS011;1661;53.572;10.174;2023-05-07T00:05:58;18.10;;;14.30;;
3297;SDS011;1661;53.572;10.174;2023-05-07T00:08:25;18.13;;;13.70;;
3297;SDS011;1661;53.572;10.174;2023-05-07T00:10:53;15.17;;;13.20;;
3297;SDS011;1661;53.572;10.174;2023-05-07T00:13:20;16.17;;;13.90;;
3297;SDS011;1661;53.572;10.174;2023-05-07T00:15:46;16.10;;;13.93;;
3297;SDS011;1661;53.572;10.174;2023-05-07T00:18:13;19.70;;;16.00;;
3297;SDS011;1661;53.572;10.174;2023-05-07T00:20:40;20.30;;;16.50;;
3297;SDS011;1661;53.572;10.174;2023-05-07T00:23:10;24.60;;;15.37;;
3297;SDS011;1661;53.572;10.174;2023-05-07T00:25:37;17.90;;;13.80;;
3297;SDS011;1661;53.572;10.174;2023-05-07T00:28:08;19.27;;;14.50;;
3297;SDS011;1661;53.572;10.174;2023-05-07T00:30:42;18.03;;;14.27;;
3297;SDS011;1661;53.572;10.174;2023-05-07T00:33:09;20.10;;;15.00;;
3297;SDS011;1661;53.572;10.174;2023-05-07T00:35:36;19.03;;;14.10;;
3297;SDS011;1661;53.572;10.174;2023-05-07T00:38:03;18.30;;;14.97;;
3297;SDS011;1661;53.572;10.174;2023-05-07T00:40:30;22.03;;;15.67;;
3297;SDS011;1661;53.572;10.174;2023-05-07T00:42:56;19.77;;;14.77;;
3297;SDS011;1661;53.572;10.174;2023-05-07T00:45:26;19.50;;;14.93;;
3297;SDS011;1661;53.572;10.174;2023-05-07T00:47:57;22.03;;;15.07;;
3297;SDS011;1661;53.572;10.174;2023-05-07T00:50:26;19.93;;;13.97;;
3297;SDS011;1661;53.572;10.174;2023-05-07T00:52:54;16.63;;;13.90;;
3297;SDS011;1661;53.572;10.174;2023-05-07T00:55:24;21.50;;;15.87;;
3297;SDS011;1661;53.572;10.174;2023-05-07T00:57:51;17.80;;;15.30;;
3297;SDS011;1661;53.572;10.174;2023-05-07T01:00:18;16.63;;;14.30;;
3297;SDS011;1661;53.572;10.174;2023-05-07T01:02:50;19.17;;;15.60;;
3297;SDS011;1661;53.572;10.174;2023-05-07T01:05:17;15.60;;;13.77;;
3297;SDS011;1661;53.572;10.174;2023-05-07T01:07:48;20.53;;;15.80;;
3297;SDS011;1661;53.572;10.174;2023-05-07T01:10:17;18.03;;;14.90;;
3297;SDS011;1661;53.572;10.174;2023-05-07T01:12:45;15.70;;;14.10;;
3297;SDS011;1661;53.572;10.174;2023-05-07T01:15:17;17.73;;;14.10;;
3297;SDS011;1661;53.572;10.174;2023-05-07T01:17:44;18.17;;;13.80;;
3297;SDS011;1661;53.572;10.174;2023-05-07T01:20:13;21.70;;;14.87;;
3297;SDS011;1661;53.572;10.174;2023-05-07T01:22:42;15.10;;;12.73;;
3297;SDS011;1661;53.572;10.174;2023-05-07T01:25:09;20.20;;;16.00;;
3297;SDS011;1661;53.572;10.174;2023-05-07T01:27:41;17.03;;;15.27;;
3297;SDS011;1661;53.572;10.174;2023-05-07T01:30:08;20.70;;;14.17;;
3297;SDS011;1661;53.572;10.174;2023-05-07T01:32:36;18.83;;;14.20;;
3297;SDS011;1661;53.572;10.174;2023-05-07T01:35:10;18.13;;;15.27;;
3297;SDS011;1661;53.572;10.174;2023-05-07T01:37:39;18.47;;;13.77;;
3297;SDS011;1661;53.572;10.174;2023-05-07T01:40:08;18.60;;;13.80;;
3297;SDS011;1661;53.572;10.174;2023-05-07T01:42:36;19.10;;;15.40;;
3297;SDS011;1661;53.572;10.174;2023-05-07T01:45:03;18.50;;;15.43;;
3297;SDS011;1661;53.572;10.174;2023-05-07T01:47:31;16.67;;;14.20;;
3297;SDS011;1661;53.572;10.174;2023-05-07T01:49:58;18.77;;;12.90;;
3297;SDS011;1661;53.572;10.174;2023-05-07T01:52:26;15.17;;;12.87;;
3297;SDS011;1661;53.572;10.174;2023-05-07T01:54:55;16.17;;;13.33;;
3297;SDS011;1661;53.572;10.174;2023-05-07T01:57:22;16.87;;;13.70;;
3297;SDS011;1661;53.572;10.174;2023-05-07T01:59:48;17.20;;;13.03;;
3297;SDS011;1661;53.572;10.174;2023-05-07T02:02:15;16.43;;;13.50;;
3297;SDS011;1661;53.572;10.174;2023-05-07T02:04:42;16.87;;;12.43;;
3297;SDS011;1661;53.572;10.174;2023-05-07T02:07:12;14.57;;;12.93;;
3297;SDS011;1661;53.572;10.174;2023-05-07T02:09:41;15.37;;;12.70;;
3297;SDS011;1661;53.572;10.174;2023-05-07T02:12:11;16.80;;;13.20;;
3297;SDS011;1661;53.572;10.174;2023-05-07T02:14:38;15.57;;;14.00;;
3297;SDS011;1661;53.572;10.174;2023-05-07T02:17:05;14.13;;;11.10;;
3297;SDS011;1661;53.572;10.174;2023-05-07T02:19:31;14.00;;;12.30;;
3297;SDS011;1661;53.572;10.174;2023-05-07T02:21:58;20.23;;;13.90;;
3297;SDS011;1661;53.572;10.174;2023-05-07T02:24:28;14.50;;;12.20;;
3297;SDS011;1661;53.572;10.174;2023-05-07T02:26:55;16.87;;;13.80;;
3297;SDS011;1661;53.572;10.174;2023-05-07T02:29:23;14.97;;;11.73;;
3297;SDS011;1661;53.572;10.174;2023-05-07T02:31:50;18.20;;;13.70;;
3297;SDS011;1661;53.572;10.174;2023-05-07T02:34:18;18.20;;;12.57;;
3297;SDS011;1661;53.572;10.174;2023-05-07T02:36:44;15.13;;;13.20;;
3297;SDS011;1661;53.572;10.174;2023-05-07T02:39:11;20.60;;;14.57;;
3297;SDS011;1661;53.572;10.174;2023-05-07T02:41:38;17.53;;;12.80;;
3297;SDS011;1661;53.572;10.174;2023-05-07T02:44:08;25.00;;;14.97;;
3297;SDS011;1661;53.572;10.174;2023-05-07T02:46:39;18.30;;;13.87;;
3297;SDS011;1661;53.572;10.174;2023-05-07T02:49:06;17.67;;;12.80;;
3297;SDS011;1661;53.572;10.174;2023-05-07T02:51:32;14.23;;;12.27;;
3297;SDS011;1661;53.572;10.174;2023-05-07T02:53:59;19.00;;;14.00;;
3297;SDS011;1661;53.572;10.174;2023-05-07T02:56:29;20.43;;;13.10;;
3297;SDS011;1661;53.572;10.174;2023-05-07T02:58:56;15.00;;;13.20;;
3297;SDS011;1661;53.572;10.174;2023-05-07T03:01:23;19.37;;;13.77;;
3297;SDS011;1661;53.572;10.174;2023-05-07T03:03:51;16.90;;;13.83;;
3297;SDS011;1661;53.572;10.174;2023-05-07T03:06:18;20.10;;;13.90;;
3297;SDS011;1661;53.572;10.174;2023-05-07T03:08:47;16.90;;;13.90;;
3297;SDS011;1661;53.572;10.174;2023-05-07T03:11:16;22.77;;;14.57;;
3297;SDS011;1661;53.572;10.174;2023-05-07T03:13:43;16.30;;;13.27;;
3297;SDS011;1661;53.572;10.174;2023-05-07T03:16:10;19.80;;;15.90;;
3297;SDS011;1661;53.572;10.174;2023-05-07T03:18:36;18.03;;;14.17;;
3297;SDS011;1661;53.572;10.174;2023-05-07T03:21:05;17.57;;;13.30;;
3297;SDS011;1661;53.572;10.174;2023-05-07T03:23:37;15.37;;;13.50;;
3297;SDS011;1661;53.572;10.174;2023-05-07T03:26:07;18.40;;;13.50;;
3297;SDS011;1661;53.572;10.174;2023-05-07T03:28:34;17.10;;;13.97;;
3297;SDS011;1661;53.572;10.174;2023-05-07T03:31:04;16.00;;;14.37;;
3297;SDS011;1661;53.572;10.174;2023-05-07T03:33:49;18.60;;;14.57;;
3297;SDS011;1661;53.572;10.174;2023-05-07T03:36:19;15.70;;;14.10;;
3297;SDS011;1661;53.572;10.174;2023-05-07T03:38:46;15.47;;;13.73;;
3297;SDS011;1661;53.572;10.174;2023-05-07T03:41:14;24.60;;;14.80;;
3297;SDS011;1661;53.572;10.174;2023-05-07T03:43:40;16.03;;;14.17;;
3297;SDS011;1661;53.572;10.174;2023-05-07T03:46:08;14.97;;;13.43;;
3297;SDS011;1661;53.572;10.174;2023-05-07T03:48:35;16.27;;;13.80;;
3297;SDS011;1661;53.572;10.174;2023-05-07T03:51:02;20.00;;;13.70;;
3297;SDS011;1661;53.572;10.174;2023-05-07T03:53:30;18.10;;;14.00;;
3297;SDS011;1661;53.572;10.174;2023-05-07T03:55:57;16.10;;;13.13;;
3297;SDS011;1661;53.572;10.174;2023-05-07T03:58:26;13.23;;;11.47;;
3297;SDS011;1661;53.572;10.174;2023-05-07T04:00:56;13.70;;;12.13;;
3297;SDS011;1661;53.572;10.174;2023-05-07T04:03:23;15.00;;;12.83;;
3297;SDS011;1661;53.572;10.174;2023-05-07T04:05:50;15.07;;;12.87;;
3297;SDS011;1661;53.572;10.174;2023-05-07T04:08:17;15.33;;;11.90;;
3297;SDS011;1661;53.572;10.174;2023-05-07T04:10:45;12.80;;;10.73;;
3297;SDS011;1661;53.572;10.174;2023-05-07T04:13:12;18.07;;;12.93;;
3297;SDS011;1661;53.572;10.174;2023-05-07T04:15:38;18.00;;;13.00;;
3297;SDS011;1661;53.572;10.174;2023-05-07T04:18:05;15.70;;;13.30;;
3297;SDS011;1661;53.572;10.174;2023-05-07T04:20:33;17.00;;;13.87;;
3297;SDS011;1661;53.572;10.174;2023-05-07T04:23:01;19.80;;;13.10;;
3297;SDS011;1661;53.572;10.174;2023-05-07T04:25:28;15.07;;;12.13;;
3297;SDS011;1661;53.572;10.174;2023-05-07T04:27:57;17.70;;;14.40;;
3297;SDS011;1661;53.572;10.174;2023-05-07T04:30:24;20.40;;;13.53;;
3297;SDS011;1661;53.572;10.174;2023-05-07T04:32:51;14.93;;;12.97;;
3297;SDS011;1661;53.572;10.174;2023-05-07T04:35:18;17.43;;;12.53;;
3297;SDS011;1661;53.572;10.174;2023-05-07T04:37:45;17.33;;;12.83;;
3297;SDS011;1661;53.572;10.174;2023-05-07T04:40:12;13.87;;;12.47;;
3297;SDS011;1661;53.572;10.174;2023-05-07T04:42:39;19.30;;;13.67;;
3297;SDS011;1661;53.572;10.174;2023-05-07T04:45:10;14.00;;;12.50;;
3297;SDS011;1661;53.572;10.174;2023-05-07T04:47:40;15.60;;;13.07;;
3297;SDS011;1661;53.572;10.174;2023-05-07T04:50:07;12.73;;;11.20;;
3297;SDS011;1661;53.572;10.174;2023-05-07T04:52:34;15.47;;;11.57;;
3297;SDS011;1661;53.572;10.174;2023-05-07T04:55:03;14.70;;;12.23;;
3297;SDS011;1661;53.572;10.174;2023-05-07T04:57:31;14.30;;;12.00;;
3297;SDS011;1661;53.572;10.174;2023-05-07T04:59:57;12.00;;;10.80;;
3297;SDS011;1661;53.572;10.174;2023-05-07T05:02:25;12.80;;;11.13;;
3297;SDS011;1661;53.572;10.174;2023-05-07T05:04:52;13.90;;;12.07;;
3297;SDS011;1661;53.572;10.174;2023-05-07T05:07:19;16.23;;;12.60;;
3297;SDS011;1661;53.572;10.174;2023-05-07T05:09:46;16.40;;;11.63;;
3297;SDS011;1661;53.572;10.174;2023-05-07T05:12:12;15.77;;;11.23;;
3297;SDS011;1661;53.572;10.174;2023-05-07T05:14:39;14.60;;;12.40;;
3297;SDS011;1661;53.572;10.174;2023-05-07T05:17:06;14.00;;;10.80;;
3297;SDS011;1661;53.572;10.174;2023-05-07T05:19:34;16.20;;;11.63;;
3297;SDS011;1661;53.572;10.174;2023-05-07T05:22:01;14.47;;;11.40;;
3297;SDS011;1661;53.572;10.174;2023-05-07T05:24:28;14.20;;;11.83;;
3297;SDS011;1661;53.572;10.174;2023-05-07T05:26:55;14.10;;;12.50;;
3297;SDS011;1661;53.572;10.174;2023-05-07T05:29:23;17.20;;;12.80;;
3297;SDS011;1661;53.572;10.174;2023-05-07T05:31:50;18.23;;;13.20;;
3297;SDS011;1661;53.572;10.174;2023-05-07T05:34:16;15.67;;;11.50;;
3297;SDS011;1661;53.572;10.174;2023-05-07T05:36:46;17.73;;;11.40;;
3297;SDS011;1661;53.572;10.174;2023-05-07T05:39:12;14.53;;;11.60;;
3297;SDS011;1661;53.572;10.174;2023-05-07T05:41:39;16.00;;;11.60;;
3297;SDS011;1661;53.572;10.174;2023-05-07T05:44:06;18.37;;;12.37;;
3297;SDS011;1661;53.572;10.174;2023-05-07T05:46:33;15.10;;;11.27;;
3297;SDS011;1661;53.572;10.174;2023-05-07T05:49:00;16.87;;;12.40;;
3297;SDS011;1661;53.572;10.174;2023-05-07T05:51:27;13.60;;;10.63;;
3297;SDS011;1661;53.572;10.174;2023-05-07T05:53:55;13.07;;;11.77;;
3297;SDS011;1661;53.572;10.174;2023-05-07T05:56:22;16.43;;;11.70;;
3297;SDS011;1661;53.572;10.174;2023-05-07T05:58:49;12.87;;;11.47;;
3297;SDS011;1661;53.572;10.174;2023-05-07T06:01:16;15.57;;;12.00;;
3297;SDS011;1661;53.572;10.174;2023-05-07T06:03:43;12.80;;;11.50;;
3297;SDS011;1661;53.572;10.174;2023-05-07T06:06:10;14.40;;;12.00;;
3297;SDS011;1661;53.572;10.174;2023-05-07T06:08:37;12.80;;;11.30;;
3297;SDS011;1661;53.572;10.174;2023-05-07T06:11:05;12.97;;;10.73;;
3297;SDS011;1661;53.572;10.174;2023-05-07T06:13:38;13.67;;;12.17;;
3297;SDS011;1661;53.572;10.174;2023-05-07T06:16:05;12.03;;;10.83;;
3297;SDS011;1661;53.572;10.174;2023-05-07T06:18:32;12.47;;;10.50;;
3297;SDS011;1661;53.572;10.174;2023-05-07T06:21:02;12.30;;;10.93;;
3297;SDS011;1661;53.572;10.174;2023-05-07T06:23:29;11.57;;;10.37;;
3297;SDS011;1661;53.572;10.174;2023-05-07T06:25:55;12.37;;;10.90;;
3297;SDS011;1661;53.572;10.174;2023-05-07T06:28:24;14.37;;;11.27;;
3297;SDS011;1661;53.572;10.174;2023-05-07T06:30:51;13.23;;;11.17;;
3297;SDS011;1661;53.572;10.174;2023-05-07T06:33:20;12.53;;;11.23;;
3297;SDS011;1661;53.572;10.174;2023-05-07T06:35:50;12.63;;;10.30;;
3297;SDS011;1661;53.572;10.174;2023-05-07T06:38:16;10.70;;;9.53;;
3297;SDS011;1661;53.572;10.174;2023-05-07T06:40:43;13.30;;;10.43;;
3297;SDS011;1661;53.572;10.174;2023-05-07T06:43:13;13.20;;;10.37;;
3297;SDS011;1661;53.572;10.174;2023-05-07T06:45:42;14.30;;;11.17;;
3297;SDS011;1661;53.572;10.174;2023-05-07T06:48:11;11.63;;;10.10;;
3297;SDS011;1661;53.572;10.174;2023-05-07T06:50:38;15.60;;;11.00;;
3297;SDS011;1661;53.572;10.174;2023-05-07T06:53:04;12.03;;;10.57;;
3297;SDS011;1661;53.572;10.174;2023-05-07T06:55:31;12.43;;;11.10;;
3297;SDS011;1661;53.572;10.174;2023-05-07T06:57:58;13.13;;;10.23;;
3297;SDS011;1661;53.572;10.174;2023-05-07T07:00:26;10.20;;;9.17;;
3297;SDS011;1661;53.572;10.174;2023-05-07T07:02:54;11.40;;;10.30;;
3297;SDS011;1661;53.572;10.174;2023-05-07T07:05:21;11.23;;;9.90;;
3297;SDS011;1661;53.572;10.174;2023-05-07T07:07:48;9.10;;;8.13;;
3297;SDS011;1661;53.572;10.174;2023-05-07T07:10:17;13.57;;;9.27;;
3297;SDS011;1661;53.572;10.174;2023-05-07T07:12:44;10.43;;;9.37;;
3297;SDS011;1661;53.572;10.174;2023-05-07T07:15:11;11.93;;;9.73;;
3297;SDS011;1661;53.572;10.174;2023-05-07T07:17:38;15.70;;;9.83;;
3297;SDS011;1661;53.572;10.174;2023-05-07T07:20:07;10.67;;;9.43;;
3297;SDS011;1661;53.572;10.174;2023-05-07T07:22:34;10.30;;;9.00;;
3297;SDS011;1661;53.572;10.174;2023-05-07T07:25:03;13.23;;;10.37;;
3297;SDS011;1661;53.572;10.174;2023-05-07T07:27:30;9.80;;;8.83;;
3297;SDS011;1661;53.572;10.174;2023-05-07T07:29:57;10.17;;;8.83;;
3297;SDS011;1661;53.572;10.174;2023-05-07T07:32:27;11.93;;;9.47;;
3297;SDS011;1661;53.572;10.174;2023-05-07T07:34:54;9.57;;;8.40;;
3297;SDS011;1661;53.572;10.174;2023-05-07T07:37:22;10.20;;;9.27;;
3297;SDS011;1661;53.572;10.174;2023-05-07T07:39:53;11.03;;;8.53;;
3297;SDS011;1661;53.572;10.174;2023-05-07T07:42:21;9.47;;;8.60;;
3297;SDS011;1661;53.572;10.174;2023-05-07T07:44:47;13.27;;;10.33;;
3297;SDS011;1661;53.572;10.174;2023-05-07T07:47:14;10.10;;;9.00;;
3297;SDS011;1661;53.572;10.174;2023-05-07T07:49:43;13.20;;;10.20;;
3297;SDS011;1661;53.572;10.174;2023-05-07T07:52:10;10.47;;;9.13;;
3297;SDS011;1661;53.572;10.174;2023-05-07T07:54:38;10.60;;;9.50;;
3297;SDS011;1661;53.572;10.174;2023-05-07T07:57:08;11.37;;;10.17;;
3297;SDS011;1661;53.572;10.174;2023-05-07T07:59:35;11.93;;;9.10;;
3297;SDS011;1661;53.572;10.174;2023-05-07T08:02:05;9.93;;;8.93;;
3297;SDS011;1661;53.572;10.174;2023-05-07T08:04:32;9.93;;;9.03;;
3297;SDS011;1661;53.572;10.174;2023-05-07T08:06:58;10.63;;;9.57;;
3297;SDS011;1661;53.572;10.174;2023-05-07T08:09:25;10.00;;;8.97;;
3297;SDS011;1661;53.572;10.174;2023-05-07T08:11:53;9.57;;;8.67;;
3297;SDS011;1661;53.572;10.174;2023-05-07T08:14:20;9.70;;;8.63;;
3297;SDS011;1661;53.572;10.174;2023-05-07T08:16:47;13.17;;;11.30;;
3297;SDS011;1661;53.572;10.174;2023-05-07T08:19:14;13.00;;;9.73;;
3297;SDS011;1661;53.572;10.174;2023-05-07T08:21:40;15.40;;;9.40;;
3297;SDS011;1661;53.572;10.174;2023-05-07T08:24:07;10.20;;;9.20;;
3297;SDS011;1661;53.572;10.174;2023-05-07T08:26:34;9.33;;;8.40;;
3297;SDS011;1661;53.572;10.174;2023-05-07T08:29:05;13.70;;;8.20;;
3297;SDS011;1661;53.572;10.174;2023-05-07T08:31:32;9.20;;;8.27;;
3297;SDS011;1661;53.572;10.174;2023-05-07T08:33:59;8.97;;;8.27;;
3297;SDS011;1661;53.572;10.174;2023-05-07T08:36:26;11.33;;;10.33;;
3297;SDS011;1661;53.572;10.174;2023-05-07T08:38:53;8.50;;;7.70;;
3297;SDS011;1661;53.572;10.174;2023-05-07T08:41:20;8.47;;;7.70;;
3297;SDS011;1661;53.572;10.174;2023-05-07T08:43:50;8.80;;;7.90;;
3297;SDS011;1661;53.572;10.174;2023-05-07T08:46:20;9.50;;;8.60;;
3297;SDS011;1661;53.572;10.174;2023-05-07T08:48:47;10.23;;;9.07;;
3297;SDS011;1661;53.572;10.174;2023-05-07T08:51:15;9.73;;;8.67;;
3297;SDS011;1661;53.572;10.174;2023-05-07T08:53:44;13.30;;;9.67;;
3297;SDS011;1661;53.572;10.174;2023-05-07T08:56:13;8.63;;;7.83;;
3297;SDS011;1661;53.572;10.174;2023-05-07T08:58:40;10.90;;;8.53;;
3297;SDS011;1661;53.572;10.174;2023-05-07T09:01:09;9.40;;;7.67;;
3297;SDS011;1661;53.572;10.174;2023-05-07T09:03:40;9.17;;;7.43;;
3297;SDS011;1661;53.572;10.174;2023-05-07T09:06:07;9.87;;;8.33;;
3297;SDS011;1661;53.572;10.174;2023-05-07T09:08:35;8.70;;;7.80;;
3297;SDS011;1661;53.572;10.174;2023-05-07T09:11:02;9.03;;;8.03;;
3297;SDS011;1661;53.572;10.174;2023-05-07T09:13:29;8.00;;;7.30;;
3297;SDS011;1661;53.572;10.174;2023-05-07T09:15:56;7.90;;;7.10;;
3297;SDS011;1661;53.572;10.174;2023-05-07T09:18:23;8.87;;;8.03;;
3297;SDS011;1661;53.572;10.174;2023-05-07T09:20:52;8.67;;;7.87;;
3297;SDS011;1661;53.572;10.174;2023-05-07T09:23:20;7.60;;;7.00;;
3297;SDS011;1661;53.572;10.174;2023-05-07T09:25:47;8.73;;;6.70;;
3297;SDS011;1661;53.572;10.174;2023-05-07T09:28:14;8.47;;;7.57;;
3297;SDS011;1661;53.572;10.174;2023-05-07T09:30:41;7.77;;;7.07;;
3297;SDS011;1661;53.572;10.174;2023-05-07T09:33:08;7.60;;;7.00;;
3297;SDS011;1661;53.572;10.174;2023-05-07T09:35:35;7.93;;;7.13;;
3297;SDS011;1661;53.572;10.174;2023-05-07T09:38:05;7.10;;;6.47;;
3297;SDS011;1661;53.572;10.174;2023-05-07T09:40:32;6.47;;;5.87;;
3297;SDS011;1661;53.572;10.174;2023-05-07T09:43:08;7.50;;;6.80;;
3297;SDS011;1661;53.572;10.174;2023-05-07T09:45:36;7.13;;;6.43;;
3297;SDS011;1661;53.572;10.174;2023-05-07T09:48:06;8.13;;;7.43;;
3297;SDS011;1661;53.572;10.174;2023-05-07T09:50:35;7.17;;;6.43;;
3297;SDS011;1661;53.572;10.174;2023-05-07T09:53:10;8.13;;;7.03;;
3297;SDS011;1661;53.572;10.174;2023-05-07T09:55:40;8.93;;;8.03;;
3297;SDS011;1661;53.572;10.174;2023-05-07T09:58:07;8.60;;;7.80;;
3297;SDS011;1661;53.572;10.174;2023-05-07T10:00:35;7.93;;;7.20;;
3297;SDS011;1661;53.572;10.174;2023-05-07T10:03:03;9.57;;;7.53;;
3297;SDS011;1661;53.572;10.174;2023-05-07T10:05:31;12.60;;;7.47;;
3297;SDS011;1661;53.572;10.174;2023-05-07T10:07:59;8.90;;;7.60;;
3297;SDS011;1661;53.572;10.174;2023-05-07T10:10:28;8.20;;;7.50;;
3297;SDS011;1661;53.572;10.174;2023-05-07T10:12:56;12.97;;;7.73;;
3297;SDS011;1661;53.572;10.174;2023-05-07T10:15:26;7.60;;;6.97;;
3297;SDS011;1661;53.572;10.174;2023-05-07T10:17:55;8.60;;;7.70;;
3297;SDS011;1661;53.572;10.174;2023-05-07T10:20:22;7.40;;;6.90;;
3297;SDS011;1661;53.572;10.174;2023-05-07T10:22:50;7.87;;;6.87;;
3297;SDS011;1661;53.572;10.174;2023-05-07T10:25:18;7.53;;;6.83;;
3297;SDS011;1661;53.572;10.174;2023-05-07T10:27:50;10.27;;;6.47;;
3297;SDS011;1661;53.572;10.174;2023-05-07T10:30:26;7.93;;;7.17;;
3297;SDS011;1661;53.572;10.174;2023-05-07T10:32:59;10.50;;;7.13;;
3297;SDS011;1661;53.572;10.174;2023-05-07T10:35:32;7.47;;;6.77;;
3297;SDS011;1661;53.572;10.174;2023-05-07T10:38:03;10.43;;;7.83;;
3297;SDS011;1661;53.572;10.174;2023-05-07T10:40:31;7.50;;;6.90;;
3297;SDS011;1661;53.572;10.174;2023-05-07T10:43:02;7.57;;;6.90;;
3297;SDS011;1661;53.572;10.174;2023-05-07T10:45:30;7.07;;;6.53;;
3297;SDS011;1661;53.572;10.174;2023-05-07T10:48:07;7.73;;;7.13;;
3297;SDS011;1661;53.572;10.174;2023-05-07T10:50:38;7.23;;;6.53;;
3297;SDS011;1661;53.572;10.174;2023-05-07T10:53:24;7.27;;;6.60;;
3297;SDS011;1661;53.572;10.174;2023-05-07T10:58:51;6.30;;;5.83;;
3297;SDS011;1661;53.572;10.174;2023-05-07T11:04:19;6.67;;;6.07;;
3297;SDS011;1661;53.572;10.174;2023-05-07T11:09:55;5.57;;;5.23;;
3297;SDS011;1661;53.572;10.174;2023-05-07T11:15:39;5.30;;;4.90;;
3297;SDS011;1661;53.572;10.174;2023-05-07T11:18:08;6.60;;;6.00;;
3297;SDS011;1661;53.572;10.174;2023-05-07T11:26:22;6.17;;;5.37;;
3297;SDS011;1661;53.572;10.174;2023-05-07T11:28:50;5.23;;;4.73;;
3297;SDS011;1661;53.572;10.174;2023-05-07T11:31:21;5.07;;;4.67;;
3297;SDS011;1661;53.572;10.174;2023-05-07T11:33:49;5.30;;;4.40;;
3297;SDS011;1661;53.572;10.174;2023-05-07T11:36:16;7.50;;;5.07;;
3297;SDS011;1661;53.572;10.174;2023-05-07T11:38:47;5.23;;;4.93;;
3297;SDS011;1661;53.572;10.174;2023-05-07T11:41:16;5.77;;;5.30;;
3297;SDS011;1661;53.572;10.174;2023-05-07T11:43:54;5.73;;;5.33;;
3297;SDS011;1661;53.572;10.174;2023-05-07T11:46:23;4.50;;;4.20;;
3297;SDS011;1661;53.572;10.174;2023-05-07T11:48:52;6.80;;;5.73;;
3297;SDS011;1661;53.572;10.174;2023-05-07T11:51:19;5.27;;;4.80;;
3297;SDS011;1661;53.572;10.174;2023-05-07T11:53:47;5.20;;;4.30;;
3297;SDS011;1661;53.572;10.174;2023-05-07T11:56:15;5.23;;;4.83;;
3297;SDS011;1661;53.572;10.174;2023-05-07T11:58:42;7.17;;;5.70;;
3297;SDS011;1661;53.572;10.174;2023-05-07T12:01:11;6.97;;;4.77;;
3297;SDS011;1661;53.572;10.174;2023-05-07T12:03:41;5.37;;;4.17;;
3297;SDS011;1661;53.572;10.174;2023-05-07T12:06:09;5.47;;;5.07;;
3297;SDS011;1661;53.572;10.174;2023-05-07T12:08:37;4.03;;;3.73;;
3297;SDS011;1661;53.572;10.174;2023-05-07T12:11:06;5.33;;;4.30;;
3297;SDS011;1661;53.572;10.174;2023-05-07T12:13:36;4.93;;;4.20;;
3297;SDS011;1661;53.572;10.174;2023-05-07T12:16:03;5.90;;;4.77;;
3297;SDS011;1661;53.572;10.174;2023-05-07T12:18:32;4.90;;;3.60;;
3297;SDS011;1661;53.572;10.174;2023-05-07T12:21:02;3.73;;;3.53;;
3297;SDS011;1661;53.572;10.174;2023-05-07T12:23:30;4.13;;;3.73;;
3297;SDS011;1661;53.572;10.174;2023-05-07T12:25:57;4.70;;;4.30;;
3297;SDS011;1661;53.572;10.174;2023-05-07T12:28:25;4.10;;;3.80;;
3297;SDS011;1661;53.572;10.174;2023-05-07T12:30:55;4.07;;;3.77;;
3297;SDS011;1661;53.572;10.174;2023-05-07T12:33:24;4.27;;;3.97;;
3297;SDS011;1661;53.572;10.174;2023-05-07T12:35:53;4.87;;;3.90;;
3297;SDS011;1661;53.572;10.174;2023-05-07T12:38:22;5.10;;;3.90;;
3297;SDS011;1661;53.572;10.174;2023-05-07T12:40:50;4.23;;;3.93;;
3297;SDS011;1661;53.572;10.174;2023-05-07T12:43:20;3.23;;;3.03;;
3297;SDS011;1661;53.572;10.174;2023-05-07T12:45:48;4.00;;;3.57;;
3297;SDS011;1661;53.572;10.174;2023-05-07T12:48:16;5.00;;;4.50;;
3297;SDS011;1661;53.572;10.174;2023-05-07T12:50:43;4.90;;;3.70;;
3297;SDS011;1661;53.572;10.174;2023-05-07T12:53:11;3.60;;;3.40;;
3297;SDS011;1661;53.572;10.174;2023-05-07T12:55:42;4.10;;;3.80;;
3297;SDS011;1661;53.572;10.174;2023-05-07T12:58:16;3.90;;;3.43;;
3297;SDS011;1661;53.572;10.174;2023-05-07T13:00:44;3.47;;;3.23;;
3297;SDS011;1661;53.572;10.174;2023-05-07T13:03:16;4.10;;;3.20;;
3297;SDS011;1661;53.572;10.174;2023-05-07T13:05:48;3.83;;;3.63;;
3297;SDS011;1661;53.572;10.174;2023-05-07T13:08:23;4.03;;;3.73;;
3297;SDS011;1661;53.572;10.174;2023-05-07T13:10:57;3.30;;;3.10;;
3297;SDS011;1661;53.572;10.174;2023-05-07T13:13:25;5.10;;;3.60;;
3297;SDS011;1661;53.572;10.174;2023-05-07T13:15:51;3.20;;;3.00;;
3297;SDS011;1661;53.572;10.174;2023-05-07T13:18:18;4.17;;;2.93;;
3297;SDS011;1661;53.572;10.174;2023-05-07T13:20:45;3.67;;;3.47;;
3297;SDS011;1661;53.572;10.174;2023-05-07T13:23:12;3.70;;;3.50;;
3297;SDS011;1661;53.572;10.174;2023-05-07T13:25:39;3.20;;;3.00;;
3297;SDS011;1661;53.572;10.174;2023-05-07T13:28:07;6.37;;;3.47;;
3297;SDS011;1661;53.572;10.174;2023-05-07T13:30:37;7.40;;;3.43;;
3297;SDS011;1661;53.572;10.174;2023-05-07T13:33:03;3.70;;;3.40;;
3297;SDS011;1661;53.572;10.174;2023-05-07T13:35:30;3.67;;;2.80;;
3297;SDS011;1661;53.572;10.174;2023-05-07T13:37:57;3.40;;;3.20;;
3297;SDS011;1661;53.572;10.174;2023-05-07T13:40:27;4.93;;;2.70;;
3297;SDS011;1661;53.572;10.174;2023-05-07T13:42:54;3.10;;;2.90;;
3297;SDS011;1661;53.572;10.174;2023-05-07T13:45:24;3.83;;;3.53;;
3297;SDS011;1661;53.572;10.174;2023-05-07T13:47:51;3.27;;;3.07;;
3297;SDS011;1661;53.572;10.174;2023-05-07T13:50:21;3.83;;;3.50;;
3297;SDS011;1661;53.572;10.174;2023-05-07T13:52:48;3.60;;;3.40;;
3297;SDS011;1661;53.572;10.174;2023-05-07T13:55:16;3.90;;;3.63;;
3297;SDS011;1661;53.572;10.174;2023-05-07T13:57:43;3.50;;;3.30;;
3297;SDS011;1661;53.572;10.174;2023-05-07T14:00:11;3.23;;;2.93;;
3297;SDS011;1661;53.572;10.174;2023-05-07T14:02:40;3.90;;;3.03;;
3297;SDS011;1661;53.572;10.174;2023-05-07T14:05:07;2.80;;;2.60;;
3297;SDS011;1661;53.572;10.174;2023-05-07T14:07:34;3.40;;;3.20;;
3297;SDS011;1661;53.572;10.174;2023-05-07T14:10:04;3.50;;;3.20;;
3297;SDS011;1661;53.572;10.174;2023-05-07T14:12:32;3.00;;;2.80;;
3297;SDS011;1661;53.572;10.174;2023-05-07T14:14:59;2.90;;;2.70;;
3297;SDS011;1661;53.572;10.174;2023-05-07T14:17:26;2.60;;;2.40;;
3297;SDS011;1661;53.572;10.174;2023-05-07T14:19:57;4.93;;;3.20;;
3297;SDS011;1661;53.572;10.174;2023-05-07T14:22:24;2.73;;;2.53;;
3297;SDS011;1661;53.572;10.174;2023-05-07T14:24:51;3.00;;;2.80;;
3297;SDS011;1661;53.572;10.174;2023-05-07T14:27:17;3.70;;;2.70;;
3297;SDS011;1661;53.572;10.174;2023-05-07T14:29:44;2.83;;;2.63;;
3297;SDS011;1661;53.572;10.174;2023-05-07T14:32:15;6.10;;;3.27;;
3297;SDS011;1661;53.572;10.174;2023-05-07T14:34:42;3.40;;;3.10;;
3297;SDS011;1661;53.572;10.174;2023-05-07T14:37:11;4.17;;;2.80;;
3297;SDS011;1661;53.572;10.174;2023-05-07T14:39:38;3.00;;;2.80;;
3297;SDS011;1661;53.572;10.174;2023-05-07T14:42:05;2.80;;;2.60;;
3297;SDS011;1661;53.572;10.174;2023-05-07T14:44:36;4.30;;;3.87;;
3297;SDS011;1661;53.572;10.174;2023-05-07T14:47:05;5.00;;;3.07;;
3297;SDS011;1661;53.572;10.174;2023-05-07T14:49:32;3.50;;;3.23;;
3297;SDS011;1661;53.572;10.174;2023-05-07T14:51:59;3.30;;;2.97;;
3297;SDS011;1661;53.572;10.174;2023-05-07T14:54:28;3.13;;;2.87;;
3297;SDS011;1661;53.572;10.174;2023-05-07T14:56:55;4.70;;;3.37;;
3297;SDS011;1661;53.572;10.174;2023-05-07T14:59:24;3.33;;;2.97;;
3297;SDS011;1661;53.572;10.174;2023-05-07T15:01:51;3.17;;;2.97;;
3297;SDS011;1661;53.572;10.174;2023-05-07T15:04:17;3.70;;;3.33;;
3297;SDS011;1661;53.572;10.174;2023-05-07T15:06:44;4.00;;;3.70;;
3297;SDS011;1661;53.572;10.174;2023-05-07T15:09:11;3.37;;;3.17;;
3297;SDS011;1661;53.572;10.174;2023-05-07T15:11:42;4.57;;;4.17;;